createdAt,value
2023-02-14T00:01:36.977Z,5.03
2023-02-14T00:03:44.377Z,4.96
2023-02-14T00:05:49.504Z,4.94
2023-02-14T00:07:54.112Z,4.86
2023-02-14T00:09:58.935Z,4.80
2023-02-14T00:12:03.786Z,4.81
2023-02-14T00:14:21.585Z,4.72
2023-02-14T00:16:26.390Z,4.74
2023-02-14T00:18:51.206Z,4.80
2023-02-14T00:21:02.814Z,4.77
2023-02-14T00:23:07.894Z,4.77
2023-02-14T00:25:12.877Z,4.81
2023-02-14T00:27:17.810Z,4.86
2023-02-14T00:29:25.840Z,4.91
2023-02-14T00:31:30.741Z,4.90
2023-02-14T00:33:35.698Z,4.89
2023-02-14T00:35:40.951Z,4.93
2023-02-14T00:37:48.224Z,4.86
2023-02-14T00:39:55.210Z,4.84
2023-02-14T00:42:00.011Z,4.82
2023-02-14T00:44:05.409Z,4.84
2023-02-14T00:46:10.393Z,4.80
2023-02-14T00:48:15.475Z,4.80
2023-02-14T00:50:20.440Z,4.83
2023-02-14T00:52:25.322Z,4.84
2023-02-14T00:54:32.994Z,4.83
2023-02-14T00:56:37.850Z,4.80
2023-02-14T00:58:42.879Z,4.84
2023-02-14T01:00:47.736Z,4.85
2023-02-14T01:02:52.589Z,4.79
2023-02-14T01:04:59.476Z,4.67
2023-02-14T01:07:04.304Z,4.67
2023-02-14T01:09:09.312Z,4.67
2023-02-14T01:11:19.044Z,4.71
2023-02-14T01:13:24.127Z,4.72
2023-02-14T01:15:28.891Z,4.74
2023-02-14T01:17:33.786Z,4.72
2023-02-14T01:19:42.514Z,4.73
2023-02-14T01:21:47.417Z,4.74
2023-02-14T01:23:57.359Z,4.75
2023-02-14T01:26:02.127Z,4.71
2023-02-14T01:28:09.865Z,4.73
2023-02-14T01:30:16.418Z,4.74
2023-02-14T01:32:21.283Z,4.76
2023-02-14T01:34:28.677Z,4.76
2023-02-14T01:36:35.294Z,4.66
2023-02-14T01:38:40.148Z,4.64
2023-02-14T01:40:45.866Z,4.64
2023-02-14T01:42:50.630Z,4.65
2023-02-14T01:45:04.351Z,4.68
2023-02-14T01:47:12.916Z,4.64
2023-02-14T01:49:21.216Z,4.68
2023-02-14T01:51:29.116Z,4.69
2023-02-14T01:53:34.056Z,4.69
2023-02-14T01:55:41.844Z,4.59
2023-02-14T01:57:50.680Z,4.60
2023-02-14T02:00:22.351Z,4.58
2023-02-14T02:02:27.143Z,4.56
2023-02-14T02:04:39.570Z,4.55
2023-02-14T02:06:50.293Z,4.60
2023-02-14T02:09:03.747Z,4.58
2023-02-14T02:11:08.594Z,4.58
2023-02-14T02:13:20.184Z,4.58
2023-02-14T02:15:30.230Z,4.61
2023-02-14T02:17:47.304Z,4.62
2023-02-14T02:20:22.176Z,4.66
2023-02-14T02:23:08.233Z,4.63
2023-02-14T02:25:29.394Z,4.59
2023-02-14T02:28:03.816Z,4.56
2023-02-14T02:30:41.295Z,4.48
2023-02-14T02:33:28.304Z,4.44
2023-02-14T02:36:02.733Z,4.44
2023-02-14T02:38:23.924Z,4.39
2023-02-14T02:40:37.961Z,4.34
2023-02-14T02:42:51.001Z,4.35
2023-02-14T02:45:06.486Z,4.31
2023-02-14T02:47:18.945Z,4.30
2023-02-14T02:49:45.567Z,4.33
2023-02-14T02:52:12.939Z,4.32
2023-02-14T02:54:26.426Z,4.29
2023-02-14T02:56:45.987Z,4.25
2023-02-14T02:58:56.317Z,4.26
2023-02-14T03:01:04.802Z,4.23
2023-02-14T03:03:22.430Z,4.18
2023-02-14T03:05:28.227Z,4.11
2023-02-14T03:07:39.453Z,4.10
2023-02-14T03:09:56.839Z,4.03
2023-02-14T03:12:13.817Z,4.01
2023-02-14T03:14:27.166Z,4.02
2023-02-14T03:16:56.316Z,3.99
2023-02-14T03:19:17.686Z,3.98
2023-02-14T03:21:30.978Z,4.00
2023-02-14T03:23:45.728Z,4.04
2023-02-14T03:26:05.334Z,4.08
2023-02-14T03:28:18.289Z,4.08
2023-02-14T03:30:38.317Z,4.04
2023-02-14T03:32:48.604Z,3.98
2023-02-14T03:34:59.971Z,3.90
2023-02-14T03:37:11.798Z,3.85
2023-02-14T03:39:24.790Z,3.85
2023-02-14T03:41:36.798Z,3.86
2023-02-14T03:43:47.087Z,3.93
2023-02-14T03:45:56.508Z,3.99
2023-02-14T03:48:07.050Z,4.01
2023-02-14T03:50:17.369Z,4.00
2023-02-14T03:52:23.757Z,3.94
2023-02-14T03:54:33.011Z,3.94
2023-02-14T03:56:41.457Z,3.94
2023-02-14T03:58:49.924Z,3.93
2023-02-14T04:01:00.915Z,3.95
2023-02-14T04:03:11.954Z,3.95
2023-02-14T04:05:20.471Z,3.90
2023-02-14T04:07:26.715Z,3.95
2023-02-14T04:09:34.124Z,3.99
2023-02-14T04:11:39.183Z,4.01
2023-02-14T04:13:44.007Z,4.02
2023-02-14T04:15:48.944Z,4.03
2023-02-14T04:18:06.110Z,4.03
2023-02-14T04:20:11.489Z,4.05
2023-02-14T04:22:16.463Z,4.07
2023-02-14T04:24:22.051Z,4.05
2023-02-14T04:26:29.460Z,4.07
2023-02-14T04:28:34.644Z,4.11
2023-02-14T04:30:39.153Z,4.03
2023-02-14T04:32:44.363Z,3.97
2023-02-14T04:34:49.559Z,4.00
2023-02-14T04:36:54.901Z,4.03
2023-02-14T04:38:59.720Z,3.97
2023-02-14T04:41:04.532Z,4.03
2023-02-14T04:43:11.966Z,4.03
2023-02-14T04:45:17.594Z,4.04
2023-02-14T04:47:22.373Z,4.03
2023-02-14T04:49:27.166Z,4.02
2023-02-14T04:51:31.940Z,4.01
2023-02-14T04:53:42.215Z,4.03
2023-02-14T04:55:47.082Z,3.99
2023-02-14T04:57:51.957Z,4.01
2023-02-14T04:59:59.367Z,4.01
2023-02-14T05:02:04.314Z,4.02
2023-02-14T05:04:09.172Z,3.94
2023-02-14T05:06:13.976Z,3.92
2023-02-14T05:08:18.994Z,3.95
2023-02-14T05:10:23.900Z,3.93
2023-02-14T05:12:28.710Z,3.96
2023-02-14T05:14:33.698Z,3.97
2023-02-14T05:16:41.258Z,4.02
2023-02-14T05:18:46.083Z,3.94
2023-02-14T05:20:52.442Z,3.89
2023-02-14T05:23:03.463Z,3.90
2023-02-14T05:25:09.134Z,3.89
2023-02-14T05:27:13.985Z,3.80
2023-02-14T05:29:18.813Z,3.81
2023-02-14T05:31:23.801Z,3.81
2023-02-14T05:33:31.279Z,3.80
2023-02-14T05:35:36.326Z,3.82
2023-02-14T05:37:41.381Z,3.81
2023-02-14T05:39:46.254Z,3.78
2023-02-14T05:41:51.077Z,3.83
2023-02-14T05:43:55.889Z,3.84
2023-02-14T05:46:02.764Z,3.77
2023-02-14T05:48:08.538Z,3.79
2023-02-14T05:50:16.106Z,3.76
2023-02-14T05:52:20.879Z,3.73
2023-02-14T05:54:25.661Z,3.74
2023-02-14T05:56:30.477Z,3.74
2023-02-14T05:58:35.805Z,3.69
2023-02-14T06:00:41.392Z,3.71
2023-02-14T06:02:47.132Z,3.73
2023-02-14T06:04:52.138Z,3.70
2023-02-14T06:06:59.432Z,3.65
2023-02-14T06:09:04.276Z,3.63
2023-02-14T06:11:09.151Z,3.66
2023-02-14T06:13:14.000Z,3.61
2023-02-14T06:15:19.052Z,3.67
2023-02-14T06:17:23.799Z,3.64
2023-02-14T06:19:28.687Z,3.66
2023-02-14T06:21:33.550Z,3.68
2023-02-14T06:23:41.028Z,3.72
2023-02-14T06:25:45.949Z,3.73
2023-02-14T06:27:51.061Z,3.75
2023-02-14T06:29:55.834Z,3.80
2023-02-14T06:32:05.975Z,3.84
2023-02-14T06:34:10.806Z,3.86
2023-02-14T06:36:15.666Z,3.89
2023-02-14T06:38:20.518Z,3.88
2023-02-14T06:40:27.932Z,3.87
2023-02-14T06:42:32.716Z,3.91
2023-02-14T06:44:37.527Z,3.94
2023-02-14T06:46:42.285Z,3.90
2023-02-14T06:48:47.862Z,3.75
2023-02-14T06:50:53.020Z,3.76
2023-02-14T06:53:01.280Z,3.72
2023-02-14T06:55:06.153Z,3.53
2023-02-14T06:57:13.564Z,3.56
2023-02-14T06:59:18.606Z,3.49
2023-02-14T07:01:23.462Z,3.54
2023-02-14T07:03:28.376Z,3.52
2023-02-14T07:05:33.125Z,3.59
2023-02-14T07:07:37.980Z,3.61
2023-02-14T07:09:42.910Z,3.60
2023-02-14T07:11:48.140Z,3.58
2023-02-14T07:13:55.249Z,3.50
2023-02-14T07:16:00.291Z,3.54
2023-02-14T07:18:05.484Z,3.53
2023-02-14T07:20:10.985Z,3.53
2023-02-14T07:22:15.854Z,3.53
2023-02-14T07:24:20.626Z,3.56
2023-02-14T07:26:25.450Z,3.56
2023-02-14T07:28:30.521Z,3.57
2023-02-14T07:30:38.005Z,3.61
2023-02-14T07:32:44.680Z,3.57
2023-02-14T07:34:49.596Z,3.61
2023-02-14T07:36:55.655Z,3.69
2023-02-14T07:39:00.451Z,3.69
2023-02-14T07:41:05.548Z,3.64
2023-02-14T07:43:10.851Z,3.66
2023-02-14T07:45:21.753Z,3.65
2023-02-14T07:47:29.788Z,3.66
2023-02-14T07:49:34.647Z,3.66
2023-02-14T07:51:39.461Z,3.75
2023-02-14T07:53:44.266Z,3.79
2023-02-14T07:55:52.106Z,3.80
2023-02-14T07:57:57.286Z,3.82
2023-02-14T08:00:01.899Z,3.79
2023-02-14T08:02:16.875Z,3.80
2023-02-14T08:04:26.175Z,3.79
2023-02-14T08:06:31.045Z,3.75
2023-02-14T08:08:35.912Z,3.74
2023-02-14T08:10:40.892Z,3.75
2023-02-14T08:12:58.144Z,3.67
2023-02-14T08:15:22.920Z,3.55
2023-02-14T08:17:27.728Z,3.65
2023-02-14T08:19:35.176Z,3.63
2023-02-14T08:21:40.026Z,3.63
2023-02-14T08:23:47.290Z,3.69
2023-02-14T08:25:56.102Z,3.63
2023-02-14T08:28:00.867Z,3.70
2023-02-14T08:30:05.713Z,3.72
2023-02-14T08:32:10.635Z,3.65
2023-02-14T08:34:19.287Z,3.73
2023-02-14T08:36:26.685Z,3.79
2023-02-14T08:38:31.973Z,3.93
2023-02-14T08:40:37.214Z,3.96
2023-02-14T08:42:42.101Z,3.95
2023-02-14T08:44:46.893Z,4.00
2023-02-14T08:46:51.804Z,4.05
2023-02-14T08:48:56.911Z,4.00
2023-02-14T08:51:01.754Z,3.98
2023-02-14T08:53:13.415Z,4.00
2023-02-14T08:55:18.407Z,3.97
2023-02-14T08:57:23.186Z,4.00
2023-02-14T08:59:28.995Z,4.11
2023-02-14T09:01:33.948Z,4.18
2023-02-14T09:03:39.103Z,4.22
2023-02-14T09:05:43.728Z,4.24
2023-02-14T09:07:48.571Z,4.26
2023-02-14T09:09:55.953Z,4.27
2023-02-14T09:12:00.749Z,4.23
2023-02-14T09:14:05.730Z,4.23
2023-02-14T09:16:11.957Z,4.26
2023-02-14T09:18:17.127Z,4.28
2023-02-14T09:20:21.887Z,4.31
2023-02-14T09:22:26.691Z,4.29
2023-02-14T09:24:31.457Z,4.35
2023-02-14T09:26:40.958Z,4.35
2023-02-14T09:28:45.960Z,4.36
2023-02-14T09:30:52.305Z,4.31
2023-02-14T09:32:58.864Z,4.34
2023-02-14T09:35:03.757Z,4.29
2023-02-14T09:37:06.505Z,4.40
2023-02-14T09:39:11.407Z,4.45
2023-02-14T09:41:50.552Z,4.52
2023-02-14T09:44:00.785Z,4.57
2023-02-14T09:46:06.998Z,4.60
2023-02-14T09:48:17.217Z,4.63
2023-02-14T09:50:26.984Z,4.66
2023-02-14T09:52:33.578Z,4.65
2023-02-14T09:54:39.997Z,4.60
2023-02-14T09:56:55.067Z,4.63
2023-02-14T09:59:07.950Z,4.68
2023-02-14T10:01:20.481Z,4.71
2023-02-14T10:03:41.081Z,4.74
2023-02-14T10:05:55.958Z,4.76
2023-02-14T10:08:05.815Z,4.80
2023-02-14T10:10:17.962Z,4.83
2023-02-14T10:12:37.880Z,4.90
2023-02-14T10:14:43.864Z,4.88
2023-02-14T10:16:56.550Z,4.93
2023-02-14T10:19:05.180Z,4.98
2023-02-14T10:21:14.187Z,5.04
2023-02-14T10:23:32.230Z,4.92
2023-02-14T10:25:46.763Z,4.84
2023-02-14T10:27:58.447Z,4.92
2023-02-14T10:30:04.149Z,5.01
2023-02-14T10:32:17.040Z,4.99
2023-02-14T10:34:28.602Z,5.08
2023-02-14T10:36:48.440Z,5.17
2023-02-14T10:39:00.494Z,5.23
2023-02-14T10:41:20.140Z,5.31
2023-02-14T10:43:38.799Z,5.33
2023-02-14T10:45:50.471Z,5.29
2023-02-14T10:48:04.034Z,5.36
2023-02-14T10:50:18.542Z,5.42
2023-02-14T10:52:30.042Z,5.44
2023-02-14T10:54:40.650Z,5.38
2023-02-14T10:56:49.677Z,5.38
2023-02-14T10:58:59.428Z,5.37
2023-02-14T11:01:08.292Z,5.43
2023-02-14T11:03:16.835Z,5.42
2023-02-14T11:05:28.759Z,5.47
2023-02-14T11:07:33.771Z,5.46
2023-02-14T11:09:38.560Z,5.46
2023-02-14T11:11:48.257Z,5.38
2023-02-14T11:13:56.005Z,5.42
2023-02-14T11:16:06.555Z,5.30
2023-02-14T11:18:19.709Z,5.40
2023-02-14T11:20:30.398Z,5.43
2023-02-14T11:22:37.020Z,5.44
2023-02-14T11:24:43.032Z,5.52
2023-02-14T11:26:50.126Z,5.50
2023-02-14T11:29:02.254Z,5.56
2023-02-14T11:31:07.314Z,5.68
2023-02-14T11:33:15.657Z,5.84
2023-02-14T11:35:24.355Z,5.86
2023-02-14T11:37:31.693Z,5.92
2023-02-14T11:39:38.112Z,5.99
2023-02-14T11:41:51.196Z,6.03
2023-02-14T11:44:15.511Z,6.02
2023-02-14T11:46:31.411Z,6.00
2023-02-14T11:48:39.152Z,6.02
2023-02-14T11:50:45.479Z,6.06
2023-02-14T11:52:57.187Z,6.05
2023-02-14T11:55:03.201Z,5.98
2023-02-14T11:57:11.144Z,6.01
2023-02-14T11:59:29.294Z,6.12
2023-02-14T12:01:36.299Z,6.12
2023-02-14T12:03:47.852Z,6.19
2023-02-14T12:05:57.313Z,6.24
2023-02-14T12:08:04.479Z,6.26
2023-02-14T12:10:36.561Z,6.27
2023-02-14T12:12:51.047Z,6.22
2023-02-14T12:15:24.552Z,6.17
2023-02-14T12:17:35.982Z,6.11
2023-02-14T12:19:49.445Z,6.09
2023-02-14T12:21:58.560Z,6.06
2023-02-14T12:24:08.813Z,6.02
2023-02-14T12:26:21.435Z,6.15
2023-02-14T12:28:34.877Z,6.23
2023-02-14T12:30:42.437Z,6.25
2023-02-14T12:32:51.838Z,6.34
2023-02-14T12:35:03.926Z,6.43
2023-02-14T12:37:24.945Z,6.39
2023-02-14T12:39:38.628Z,6.52
2023-02-14T12:41:52.270Z,6.67
2023-02-14T12:43:59.209Z,6.69
2023-02-14T12:46:20.858Z,6.78
2023-02-14T12:48:41.202Z,6.72
2023-02-14T12:50:52.383Z,6.66
2023-02-14T12:53:23.769Z,6.65
2023-02-14T12:55:45.174Z,6.33
2023-02-14T12:57:57.018Z,6.36
2023-02-14T13:00:17.593Z,6.40
2023-02-14T13:02:52.609Z,6.39
2023-02-14T13:05:04.456Z,6.48
2023-02-14T13:07:21.591Z,6.56
2023-02-14T13:09:41.123Z,6.56
2023-02-14T13:11:57.863Z,6.44
2023-02-14T13:14:14.385Z,6.52
2023-02-14T13:16:26.502Z,6.48
2023-02-14T13:18:45.886Z,6.48
2023-02-14T13:20:58.894Z,6.52
2023-02-14T13:23:07.960Z,6.63
2023-02-14T13:25:30.896Z,6.72
2023-02-14T13:27:40.253Z,6.73
2023-02-14T13:29:49.910Z,6.82
2023-02-14T13:32:00.281Z,6.82
2023-02-14T13:34:11.107Z,6.69
2023-02-14T13:36:19.582Z,6.64
2023-02-14T13:38:25.809Z,6.62
2023-02-14T13:40:32.812Z,6.60
2023-02-14T13:42:55.771Z,6.56
2023-02-14T13:45:00.628Z,6.49
2023-02-14T13:47:05.549Z,6.61
2023-02-14T13:49:28.936Z,6.73
2023-02-14T13:51:53.819Z,6.70
2023-02-14T13:53:58.645Z,6.74
2023-02-14T13:56:04.386Z,6.59
2023-02-14T13:58:17.796Z,6.42
2023-02-14T14:00:43.728Z,6.21
2023-02-14T14:02:50.289Z,6.25
2023-02-14T14:04:55.070Z,6.38
2023-02-14T14:07:22.201Z,6.46
2023-02-14T14:09:58.066Z,6.56
2023-02-14T14:12:03.027Z,6.67
2023-02-14T14:14:37.140Z,6.73
2023-02-14T14:16:42.045Z,6.74
2023-02-14T14:18:47.349Z,6.72
2023-02-14T14:20:52.636Z,6.66
2023-02-14T14:22:59.072Z,6.66
2023-02-14T14:25:07.559Z,6.58
2023-02-14T14:27:18.946Z,6.62
2023-02-14T14:29:29.187Z,6.61
2023-02-14T14:31:37.324Z,6.71
2023-02-14T14:33:42.613Z,6.75
2023-02-14T14:35:55.350Z,6.74
2023-02-14T14:38:01.528Z,6.71
2023-02-14T14:40:09.703Z,6.63
2023-02-14T14:42:18.002Z,6.62
2023-02-14T14:44:23.220Z,6.54
2023-02-14T14:46:28.187Z,6.37
2023-02-14T14:48:40.222Z,6.29
2023-02-14T14:50:50.406Z,6.17
2023-02-14T14:52:58.616Z,6.17
2023-02-14T14:55:05.294Z,6.16
2023-02-14T14:57:10.207Z,6.15
2023-02-14T14:59:28.852Z,6.16
2023-02-14T15:01:38.600Z,6.24
2023-02-14T15:03:46.037Z,6.23
2023-02-14T15:05:56.255Z,6.19
2023-02-14T15:08:01.494Z,6.19
2023-02-14T15:10:06.932Z,6.21
2023-02-14T15:12:26.487Z,6.24
2023-02-14T15:14:33.324Z,6.23
2023-02-14T15:16:43.881Z,6.24
2023-02-14T15:18:54.119Z,6.22
2023-02-14T15:20:59.397Z,6.19
2023-02-14T15:23:05.026Z,6.17
2023-02-14T15:25:14.149Z,6.09
2023-02-14T15:27:21.096Z,6.04
2023-02-14T15:29:28.760Z,5.99
2023-02-14T15:31:36.160Z,5.94
2023-02-14T15:33:41.471Z,5.95
2023-02-14T15:35:49.228Z,5.87
2023-02-14T15:37:57.017Z,5.84
2023-02-14T15:40:02.419Z,5.82
2023-02-14T15:42:07.737Z,5.79
2023-02-14T15:44:21.978Z,5.78
2023-02-14T15:46:36.977Z,5.79
2023-02-14T15:48:43.776Z,5.76
2023-02-14T15:50:57.229Z,5.70
2023-02-14T15:53:08.148Z,5.70
2023-02-14T15:55:14.582Z,5.68
2023-02-14T15:57:26.402Z,5.67
2023-02-14T15:59:35.553Z,5.64
2023-02-14T16:01:44.214Z,5.64
2023-02-14T16:03:57.454Z,5.59
2023-02-14T16:06:06.227Z,5.56
2023-02-14T16:08:29.697Z,5.54
2023-02-14T16:10:35.779Z,5.49
2023-02-14T16:12:42.802Z,5.49
2023-02-14T16:14:47.863Z,5.47
2023-02-14T16:17:03.726Z,5.46
2023-02-14T16:19:28.545Z,5.43
2023-02-14T16:21:36.091Z,5.42
2023-02-14T16:23:41.480Z,5.38
2023-02-14T16:25:46.751Z,5.35
2023-02-14T16:27:51.355Z,5.28
2023-02-14T16:29:56.285Z,5.23
2023-02-14T16:32:15.290Z,5.20
2023-02-14T16:34:21.744Z,5.17
2023-02-14T16:36:27.729Z,5.11
2023-02-14T16:38:38.212Z,5.07
2023-02-14T16:40:46.601Z,5.04
2023-02-14T16:42:51.533Z,5.00
2023-02-14T16:44:56.671Z,4.93
2023-02-14T16:47:01.560Z,4.85
2023-02-14T16:49:06.695Z,4.85
2023-02-14T16:51:15.257Z,4.78
2023-02-14T16:53:28.488Z,4.76
2023-02-14T16:55:36.680Z,4.76
2023-02-14T16:57:45.676Z,4.72
2023-02-14T16:59:50.554Z,4.72
2023-02-14T17:01:55.580Z,4.73
2023-02-14T17:04:00.598Z,4.74
2023-02-14T17:06:12.078Z,4.73
2023-02-14T17:08:25.028Z,4.67
2023-02-14T17:10:31.034Z,4.68
2023-02-14T17:12:44.573Z,4.67
2023-02-14T17:14:58.376Z,4.63
2023-02-14T17:17:03.488Z,4.61
2023-02-14T17:19:08.437Z,4.51
2023-02-14T17:21:16.204Z,4.45
2023-02-14T17:23:27.870Z,4.37
2023-02-14T17:25:33.189Z,4.33
2023-02-14T17:27:43.990Z,4.21
2023-02-14T17:29:51.537Z,4.15
2023-02-14T17:31:56.738Z,4.14
2023-02-14T17:34:01.393Z,4.06
2023-02-14T17:36:11.840Z,4.03
2023-02-14T17:38:16.999Z,4.09
2023-02-14T17:40:22.136Z,4.12
2023-02-14T17:42:27.086Z,4.13
2023-02-14T17:44:36.037Z,4.15
2023-02-14T17:46:41.121Z,4.16
2023-02-14T17:48:46.275Z,4.13
2023-02-14T17:50:50.876Z,4.08
2023-02-14T17:52:57.010Z,4.00
2023-02-14T17:55:01.816Z,3.92
2023-02-14T17:57:07.396Z,3.90
2023-02-14T17:59:12.176Z,3.86
2023-02-14T18:01:21.468Z,3.85
2023-02-14T18:03:26.489Z,3.75
2023-02-14T18:05:31.390Z,3.77
2023-02-14T18:07:37.040Z,3.73
2023-02-14T18:09:42.111Z,3.73
2023-02-14T18:11:47.256Z,3.72
2023-02-14T18:13:52.547Z,3.69
2023-02-14T18:16:03.934Z,3.70
2023-02-14T18:18:11.752Z,3.72
2023-02-14T18:20:16.697Z,3.73
2023-02-14T18:22:21.676Z,3.74
2023-02-14T18:24:26.503Z,3.75
2023-02-14T18:26:31.417Z,3.74
2023-02-14T18:28:37.295Z,3.75
2023-02-14T18:30:42.061Z,3.75
2023-02-14T18:32:47.631Z,3.76
2023-02-14T18:34:55.068Z,3.76
2023-02-14T18:37:00.100Z,3.76
2023-02-14T18:39:05.392Z,3.77
2023-02-14T18:41:13.957Z,3.76
2023-02-14T18:43:18.733Z,3.73
2023-02-14T18:45:23.631Z,3.74
2023-02-14T18:47:28.496Z,3.77
2023-02-14T18:49:33.469Z,3.82
2023-02-14T18:51:41.470Z,3.84
2023-02-14T18:53:47.706Z,3.82
2023-02-14T18:55:52.641Z,3.89
2023-02-14T18:57:59.238Z,3.79
2023-02-14T19:00:06.911Z,3.72
2023-02-14T19:02:12.095Z,3.77
2023-02-14T19:04:19.934Z,3.87
2023-02-14T19:06:25.870Z,3.91
2023-02-14T19:08:36.341Z,3.97
2023-02-14T19:10:41.290Z,3.97
2023-02-14T19:12:46.136Z,3.97
2023-02-14T19:14:51.130Z,3.95
2023-02-14T19:16:56.022Z,3.96
2023-02-14T19:19:02.825Z,4.01
2023-02-14T19:21:12.646Z,4.03
2023-02-14T19:23:17.770Z,4.05
2023-02-14T19:25:25.636Z,4.11
2023-02-14T19:27:30.660Z,4.13
2023-02-14T19:29:35.989Z,4.11
2023-02-14T19:31:42.961Z,4.09
2023-02-14T19:33:50.207Z,4.03
2023-02-14T19:36:32.973Z,4.08
2023-02-14T19:39:32.936Z,4.04
2023-02-14T19:41:41.257Z,4.01
2023-02-14T19:44:25.033Z,3.97
2023-02-14T19:47:48.405Z,3.94
2023-02-14T19:51:43.704Z,3.89
2023-02-14T19:54:22.367Z,3.86
2023-02-14T19:56:44.036Z,3.83
2023-02-14T19:59:17.705Z,3.86
2023-02-14T20:02:35.989Z,3.92
2023-02-14T20:05:25.321Z,3.89
2023-02-14T20:08:23.644Z,3.96
2023-02-14T20:12:16.653Z,4.01
2023-02-14T20:14:51.684Z,4.05
2023-02-14T20:17:35.682Z,4.06
2023-02-14T20:20:19.402Z,4.07
2023-02-14T20:22:29.432Z,4.06
2023-02-14T20:24:53.201Z,4.09
2023-02-14T20:28:06.394Z,4.10
2023-02-14T20:31:33.782Z,4.10
2023-02-14T20:34:01.114Z,4.13
2023-02-14T20:36:47.654Z,4.17
2023-02-14T20:42:47.924Z,4.13
2023-02-14T20:46:09.292Z,4.17
2023-02-14T20:49:17.740Z,4.19
2023-02-14T20:54:47.366Z,4.07
2023-02-14T20:57:05.844Z,4.12
2023-02-14T20:59:13.272Z,4.12
2023-02-14T21:01:22.802Z,4.15
2023-02-14T21:04:40.986Z,4.12
2023-02-14T21:07:01.692Z,4.06
2023-02-14T21:10:05.717Z,4.13
2023-02-14T21:18:04.824Z,4.08
2023-02-14T21:20:42.464Z,3.99
2023-02-14T21:23:35.734Z,3.99
2023-02-14T21:26:40.880Z,3.95
2023-02-14T21:32:42.959Z,3.80
2023-02-14T21:35:13.558Z,3.69
2023-02-14T21:37:35.903Z,3.67
2023-02-14T21:39:57.745Z,3.70
2023-02-14T21:42:27.241Z,3.71
2023-02-14T21:45:22.689Z,3.69
2023-02-14T21:49:01.388Z,3.68
2023-02-14T21:51:37.208Z,3.71
2023-02-14T21:54:33.532Z,3.72
2023-02-14T21:56:44.633Z,3.65
2023-02-14T21:58:50.574Z,3.67
2023-02-14T22:00:55.676Z,3.67
2023-02-14T22:03:00.518Z,3.70
2023-02-14T22:05:07.720Z,3.61
2023-02-14T22:07:12.579Z,3.60
2023-02-14T22:09:18.993Z,3.62
2023-02-14T22:11:31.197Z,3.66
2023-02-14T22:13:36.706Z,3.64
2023-02-14T22:15:42.572Z,3.69
2023-02-14T22:17:47.478Z,3.64
2023-02-14T22:19:52.388Z,3.64
2023-02-14T22:21:57.904Z,3.62
2023-02-14T22:24:03.512Z,3.56
2023-02-14T22:26:13.870Z,3.53
2023-02-14T22:28:21.339Z,3.51
2023-02-14T22:30:26.394Z,3.56
2023-02-14T22:32:31.222Z,3.50
2023-02-14T22:34:36.460Z,3.30
2023-02-14T22:36:41.057Z,3.28
2023-02-14T22:38:46.467Z,3.16
2023-02-14T22:40:51.540Z,3.08
2023-02-14T22:42:58.125Z,3.04
2023-02-14T22:45:05.666Z,3.06
2023-02-14T22:47:10.595Z,3.01
2023-02-14T22:49:15.398Z,2.87
2023-02-14T22:51:23.934Z,2.83
2023-02-14T22:53:28.774Z,2.79
2023-02-14T22:55:33.881Z,2.81
2023-02-14T22:57:38.895Z,2.89
2023-02-14T22:59:43.883Z,3.00
2023-02-14T23:01:52.326Z,3.09
2023-02-14T23:03:58.814Z,3.12
2023-02-14T23:06:03.957Z,3.02
2023-02-14T23:08:08.961Z,2.99
2023-02-14T23:10:14.092Z,2.86
2023-02-14T23:12:30.889Z,2.76
2023-02-14T23:14:48.271Z,2.68
2023-02-14T23:17:20.436Z,2.62
2023-02-14T23:19:39.644Z,2.56
2023-02-14T23:21:56.854Z,2.49
2023-02-14T23:24:01.787Z,2.42
2023-02-14T23:26:06.620Z,2.45
2023-02-14T23:28:11.475Z,2.53
2023-02-14T23:30:19.173Z,2.55
2023-02-14T23:32:26.688Z,2.54
2023-02-14T23:34:33.448Z,2.49
2023-02-14T23:36:38.376Z,2.49
2023-02-14T23:38:43.190Z,2.49
2023-02-14T23:41:00.505Z,2.57
2023-02-14T23:43:05.447Z,2.59
2023-02-14T23:45:23.738Z,2.47
2023-02-14T23:47:33.540Z,2.38
2023-02-14T23:49:40.730Z,2.40
2023-02-14T23:51:47.082Z,2.43
2023-02-14T23:53:52.054Z,2.47
2023-02-14T23:56:02.987Z,2.52
2023-02-14T23:58:08.019Z,2.47
